createdAt,value
2023-03-02T00:00:03.804Z,12.40
2023-03-02T00:01:03.761Z,13.60
2023-03-02T00:02:03.753Z,14.10
2023-03-02T00:03:03.736Z,16.10
2023-03-02T00:04:03.778Z,14.20
2023-03-02T00:05:03.720Z,11.80
2023-03-02T00:06:03.757Z,11.60
2023-03-02T00:07:03.705Z,13.50
2023-03-02T00:08:03.681Z,13.30
2023-03-02T00:09:03.723Z,12.80
2023-03-02T00:10:03.718Z,12.00
2023-03-02T00:11:03.657Z,10.60
2023-03-02T00:12:03.644Z,15.40
2023-03-02T00:13:03.624Z,12.40
2023-03-02T00:14:03.651Z,13.30
2023-03-02T00:15:03.616Z,10.70
2023-03-02T00:16:03.716Z,12.00
2023-03-02T00:17:03.596Z,11.30
2023-03-02T00:18:03.612Z,12.20
2023-03-02T00:19:03.586Z,11.60
2023-03-02T00:20:03.547Z,13.30
2023-03-02T00:21:03.561Z,12.80
2023-03-02T00:22:03.575Z,11.80
2023-03-02T00:23:03.562Z,13.00
2023-03-02T00:24:03.526Z,11.70
2023-03-02T00:25:03.507Z,13.40
2023-03-02T00:26:03.512Z,11.90
2023-03-02T00:27:03.708Z,12.20
2023-03-02T00:28:03.484Z,11.60
2023-03-02T00:29:03.463Z,12.50
2023-03-02T00:30:03.505Z,11.90
2023-03-02T00:31:03.514Z,12.30
2023-03-02T00:32:03.450Z,12.10
2023-03-02T00:33:03.490Z,13.10
2023-03-02T00:34:03.405Z,11.20
2023-03-02T00:35:03.399Z,12.10
2023-03-02T00:36:03.507Z,11.20
2023-03-02T00:37:03.430Z,11.00
2023-03-02T00:38:03.374Z,12.70
2023-03-02T00:39:03.390Z,11.20
2023-03-02T00:40:03.400Z,10.00
2023-03-02T00:41:03.328Z,9.80
2023-03-02T00:42:03.344Z,13.40
2023-03-02T00:43:03.320Z,12.60
2023-03-02T00:44:03.331Z,10.90
2023-03-02T00:45:03.356Z,11.10
2023-03-02T00:46:03.316Z,10.40
2023-03-02T00:47:03.398Z,9.60
2023-03-02T00:48:03.294Z,11.20
2023-03-02T00:49:03.269Z,10.80
2023-03-02T00:50:03.263Z,12.70
2023-03-02T00:51:03.250Z,11.70
2023-03-02T00:52:03.258Z,13.20
2023-03-02T00:53:03.229Z,13.00
2023-03-02T00:54:03.227Z,11.70
2023-03-02T00:55:03.217Z,12.10
2023-03-02T00:56:03.251Z,12.50
2023-03-02T00:57:03.160Z,13.40
2023-03-02T00:58:03.178Z,14.60
2023-03-02T00:59:03.158Z,10.20
2023-03-02T01:00:03.215Z,11.50
2023-03-02T01:01:03.186Z,11.50
2023-03-02T01:02:03.187Z,11.40
2023-03-02T01:03:03.210Z,11.50
2023-03-02T01:04:03.119Z,11.70
2023-03-02T01:05:03.103Z,11.30
2023-03-02T01:06:03.104Z,11.10
2023-03-02T01:07:03.074Z,10.70
2023-03-02T01:08:03.116Z,11.90
2023-03-02T01:09:03.053Z,11.80
2023-03-02T01:10:03.054Z,11.70
2023-03-02T01:11:03.040Z,11.90
2023-03-02T01:12:03.046Z,11.00
2023-03-02T01:13:03.034Z,11.20
2023-03-02T01:14:03.050Z,12.40
2023-03-02T01:15:03.017Z,13.70
2023-03-02T01:16:03.125Z,10.60
2023-03-02T01:17:03.021Z,11.50
2023-03-02T01:18:03.031Z,14.30
2023-03-02T01:19:02.968Z,11.60
2023-03-02T01:20:02.945Z,11.00
2023-03-02T01:21:02.940Z,11.20
2023-03-02T01:22:02.936Z,10.60
2023-03-02T01:23:02.934Z,12.30
2023-03-02T01:24:02.938Z,11.10
2023-03-02T01:25:02.948Z,11.20
2023-03-02T01:26:02.935Z,12.00
2023-03-02T01:27:02.869Z,11.80
2023-03-02T01:28:02.872Z,10.60
2023-03-02T01:29:02.881Z,11.70
2023-03-02T01:30:02.874Z,10.70
2023-03-02T01:31:02.850Z,13.00
2023-03-02T01:32:02.889Z,10.60
2023-03-02T01:33:02.867Z,13.00
2023-03-02T01:34:02.843Z,11.70
2023-03-02T01:35:02.809Z,10.60
2023-03-02T01:36:02.850Z,11.50
2023-03-02T01:37:02.795Z,11.70
2023-03-02T01:38:02.775Z,11.00
2023-03-02T01:39:02.804Z,10.50
2023-03-02T01:40:02.800Z,11.40
2023-03-02T01:41:02.775Z,11.60
2023-03-02T01:42:02.745Z,11.80
2023-03-02T01:43:02.740Z,10.80
2023-03-02T01:44:02.711Z,12.20
2023-03-02T01:45:02.715Z,12.30
2023-03-02T01:46:02.883Z,11.70
2023-03-02T01:47:02.684Z,9.70
2023-03-02T01:48:02.703Z,11.00
2023-03-02T01:49:02.716Z,12.10
2023-03-02T01:50:02.706Z,10.40
2023-03-02T01:51:02.659Z,13.60
2023-03-02T01:52:02.647Z,13.40
2023-03-02T01:53:04.635Z,10.20
2023-03-02T01:54:02.644Z,12.80
2023-03-02T01:55:02.621Z,12.30
2023-03-02T01:56:02.619Z,10.30
2023-03-02T01:57:02.605Z,12.20
2023-03-02T01:58:02.585Z,11.20
2023-03-02T01:59:02.595Z,11.50
2023-03-02T02:00:02.554Z,11.60
2023-03-02T02:01:02.539Z,10.80
2023-03-02T02:02:02.542Z,11.00
2023-03-02T02:03:02.553Z,11.70
2023-03-02T02:04:03.079Z,11.40
2023-03-02T02:05:02.507Z,12.40
2023-03-02T02:06:02.487Z,10.90
2023-03-02T02:07:02.468Z,12.90
2023-03-02T02:08:02.497Z,13.00
2023-03-02T02:09:02.460Z,11.50
2023-03-02T02:10:02.499Z,11.80
2023-03-02T02:11:02.485Z,11.20
2023-03-02T02:12:02.431Z,11.70
2023-03-02T02:13:02.418Z,11.10
2023-03-02T02:14:02.403Z,12.80
2023-03-02T02:15:02.417Z,11.90
2023-03-02T02:16:02.401Z,10.20
2023-03-02T02:17:02.452Z,10.90
2023-03-02T02:18:02.392Z,12.20
2023-03-02T02:19:02.386Z,10.70
2023-03-02T02:20:02.356Z,10.70
2023-03-02T02:21:02.384Z,11.20
2023-03-02T02:22:02.350Z,11.20
2023-03-02T02:23:02.325Z,12.40
2023-03-02T02:24:02.293Z,11.00
2023-03-02T02:25:02.294Z,11.20
2023-03-02T02:26:02.324Z,11.40
2023-03-02T02:27:02.320Z,11.80
2023-03-02T02:28:02.260Z,12.40
2023-03-02T02:29:02.295Z,12.40
2023-03-02T02:30:02.250Z,11.90
2023-03-02T02:31:02.232Z,11.60
2023-03-02T02:32:02.503Z,10.40
2023-03-02T02:33:02.248Z,12.90
2023-03-02T02:34:02.283Z,10.80
2023-03-02T02:35:02.211Z,12.70
2023-03-02T02:36:02.271Z,11.80
2023-03-02T02:37:02.181Z,13.30
2023-03-02T02:38:02.197Z,11.50
2023-03-02T02:39:02.174Z,12.10
2023-03-02T02:40:02.170Z,12.50
2023-03-02T02:41:02.214Z,12.10
2023-03-02T02:42:02.148Z,11.60
2023-03-02T02:43:02.116Z,12.60
2023-03-02T02:44:02.108Z,10.70
2023-03-02T02:45:02.186Z,13.40
2023-03-02T02:46:02.198Z,14.00
2023-03-02T02:47:02.080Z,11.30
2023-03-02T02:48:02.150Z,11.70
2023-03-02T02:49:02.079Z,12.80
2023-03-02T02:50:02.094Z,13.20
2023-03-02T02:51:02.055Z,11.60
2023-03-02T02:52:02.033Z,14.60
2023-03-02T02:53:02.065Z,12.00
2023-03-02T02:54:01.992Z,10.90
2023-03-02T02:55:01.998Z,13.10
2023-03-02T02:56:02.013Z,13.40
2023-03-02T02:57:01.973Z,12.70
2023-03-02T02:58:01.975Z,10.80
2023-03-02T02:59:01.965Z,11.50
2023-03-02T03:00:01.952Z,10.80
2023-03-02T03:01:01.983Z,11.00
2023-03-02T03:02:01.973Z,11.20
2023-03-02T03:03:01.940Z,13.50
2023-03-02T03:04:02.018Z,11.40
2023-03-02T03:05:01.891Z,12.10
2023-03-02T03:06:01.884Z,11.50
2023-03-02T03:07:01.862Z,11.20
2023-03-02T03:08:01.887Z,13.60
2023-03-02T03:09:01.848Z,12.50
2023-03-02T03:10:01.910Z,13.10
2023-03-02T03:11:01.826Z,11.70
2023-03-02T03:12:01.868Z,11.30
2023-03-02T03:13:01.837Z,13.50
2023-03-02T03:14:01.803Z,12.80
2023-03-02T03:15:01.802Z,14.40
2023-03-02T03:16:01.794Z,12.80
2023-03-02T03:17:01.829Z,11.60
2023-03-02T03:18:01.756Z,12.70
2023-03-02T03:19:01.802Z,13.50
2023-03-02T03:20:01.745Z,12.40
2023-03-02T03:21:01.731Z,9.60
2023-03-02T03:22:01.707Z,12.00
2023-03-02T03:23:01.725Z,11.90
2023-03-02T03:24:01.689Z,11.90
2023-03-02T03:25:01.717Z,13.10
2023-03-02T03:26:01.705Z,11.40
2023-03-02T03:27:01.667Z,13.40
2023-03-02T03:28:01.635Z,10.40
2023-03-02T03:29:01.650Z,11.70
2023-03-02T03:30:01.630Z,11.70
2023-03-02T03:31:01.700Z,11.00
2023-03-02T03:32:01.653Z,11.00
2023-03-02T03:33:01.608Z,12.20
2023-03-02T03:34:01.583Z,13.00
2023-03-02T03:35:01.634Z,11.20
2023-03-02T03:36:01.651Z,10.50
2023-03-02T03:37:01.623Z,11.90
2023-03-02T03:38:01.542Z,12.80
2023-03-02T03:39:01.546Z,9.80
2023-03-02T03:40:01.552Z,12.10
2023-03-02T03:41:01.547Z,12.60
2023-03-02T03:42:01.539Z,13.20
2023-03-02T03:43:01.527Z,14.40
2023-03-02T03:44:01.487Z,11.60
2023-03-02T03:45:01.502Z,10.80
2023-03-02T03:46:01.521Z,12.80
2023-03-02T03:47:01.462Z,10.00
2023-03-02T03:48:01.440Z,10.90
2023-03-02T03:49:01.442Z,11.80
2023-03-02T03:50:01.438Z,11.00
2023-03-02T03:51:01.424Z,11.50
2023-03-02T03:52:01.429Z,10.60
2023-03-02T03:53:03.731Z,12.00
2023-03-02T03:54:01.376Z,11.00
2023-03-02T03:55:01.426Z,10.20
2023-03-02T03:56:01.377Z,11.80
2023-03-02T03:57:01.401Z,13.00
2023-03-02T03:58:01.374Z,11.80
2023-03-02T03:59:01.368Z,15.10
2023-03-02T04:00:01.340Z,12.60
2023-03-02T04:01:01.373Z,14.00
2023-03-02T04:02:01.347Z,13.40
2023-03-02T04:03:01.333Z,12.80
2023-03-02T04:04:01.279Z,12.40
2023-03-02T04:05:01.302Z,11.50
2023-03-02T04:06:01.287Z,13.70
2023-03-02T04:07:01.272Z,12.50
2023-03-02T04:08:01.248Z,11.20
2023-03-02T04:09:01.245Z,11.40
2023-03-02T04:10:01.215Z,12.90
2023-03-02T04:11:01.222Z,11.80
2023-03-02T04:12:01.217Z,13.00
2023-03-02T04:13:01.182Z,12.10
2023-03-02T04:14:01.202Z,12.50
2023-03-02T04:15:01.170Z,12.30
2023-03-02T04:16:01.198Z,14.30
2023-03-02T04:17:01.195Z,13.50
2023-03-02T04:18:01.154Z,12.30
2023-03-02T04:19:01.137Z,15.60
2023-03-02T04:20:01.123Z,12.60
2023-03-02T04:21:01.144Z,14.00
2023-03-02T04:22:01.114Z,12.30
2023-03-02T04:23:01.107Z,14.10
2023-03-02T04:24:01.091Z,13.40
2023-03-02T04:25:01.090Z,13.20
2023-03-02T04:26:01.061Z,18.40
2023-03-02T04:27:01.072Z,13.70
2023-03-02T04:28:01.150Z,15.90
2023-03-02T04:29:01.083Z,12.80
2023-03-02T04:30:01.499Z,14.30
2023-03-02T04:31:01.088Z,13.20
2023-03-02T04:32:01.099Z,12.90
2023-03-02T04:33:01.007Z,13.80
2023-03-02T04:34:01.035Z,15.20
2023-03-02T04:35:01.001Z,15.40
2023-03-02T04:36:01.063Z,15.60
2023-03-02T04:37:00.964Z,13.50
2023-03-02T04:38:00.953Z,14.10
2023-03-02T04:39:00.983Z,16.30
2023-03-02T04:40:01.021Z,15.20
2023-03-02T04:41:01.014Z,16.20
2023-03-02T04:42:00.919Z,14.70
2023-03-02T04:43:00.910Z,13.60
2023-03-02T04:44:00.916Z,13.80
2023-03-02T04:45:00.936Z,14.70
2023-03-02T04:46:00.919Z,16.10
2023-03-02T04:47:00.943Z,15.80
2023-03-02T04:48:00.875Z,17.60
2023-03-02T04:49:00.851Z,14.40
2023-03-02T04:50:00.834Z,16.40
2023-03-02T04:51:00.865Z,15.10
2023-03-02T04:52:00.841Z,20.00
2023-03-02T04:53:00.852Z,15.80
2023-03-02T04:54:00.801Z,17.50
2023-03-02T04:55:00.794Z,17.70
2023-03-02T04:56:00.788Z,15.50
2023-03-02T04:57:00.773Z,17.40
2023-03-02T04:58:00.767Z,16.60
2023-03-02T04:59:00.762Z,16.70
2023-03-02T05:00:00.733Z,18.30
2023-03-02T05:01:00.744Z,16.50
2023-03-02T05:02:00.764Z,15.30
2023-03-02T05:03:00.750Z,16.00
2023-03-02T05:04:02.808Z,18.10
2023-03-02T05:05:00.831Z,15.70
2023-03-02T05:06:00.682Z,17.40
2023-03-02T05:07:00.703Z,16.10
2023-03-02T05:08:00.652Z,19.80
2023-03-02T05:09:00.667Z,20.30
2023-03-02T05:10:00.667Z,20.60
2023-03-02T05:11:00.633Z,19.30
2023-03-02T05:12:00.658Z,17.10
2023-03-02T05:13:00.605Z,17.70
2023-03-02T05:14:00.631Z,18.20
2023-03-02T05:15:00.606Z,19.60
2023-03-02T05:16:00.616Z,17.30
2023-03-02T05:17:00.593Z,20.30
2023-03-02T05:18:00.562Z,20.00
2023-03-02T05:19:00.562Z,18.00
2023-03-02T05:20:00.536Z,19.10
2023-03-02T05:21:00.538Z,18.90
2023-03-02T05:22:00.525Z,19.90
2023-03-02T05:23:00.551Z,20.60
2023-03-02T05:24:00.500Z,18.70
2023-03-02T05:25:00.530Z,18.90
2023-03-02T05:26:00.491Z,21.40
2023-03-02T05:27:00.471Z,21.20
2023-03-02T05:28:00.494Z,19.90
2023-03-02T05:29:00.466Z,20.30
2023-03-02T05:30:00.434Z,18.40
2023-03-02T05:31:00.481Z,21.80
2023-03-02T05:32:00.424Z,21.00
2023-03-02T05:33:00.438Z,20.70
2023-03-02T05:34:00.404Z,22.30
2023-03-02T05:35:00.398Z,21.20
2023-03-02T05:36:00.428Z,19.80
2023-03-02T05:37:00.399Z,22.60
2023-03-02T05:38:00.371Z,21.50
2023-03-02T05:39:00.320Z,21.80
2023-03-02T05:40:00.340Z,23.40
2023-03-02T05:41:00.280Z,21.50
2023-03-02T05:42:00.281Z,25.30
2023-03-02T05:43:00.247Z,23.70
2023-03-02T05:44:00.254Z,23.70
2023-03-02T05:45:00.253Z,26.40
2023-03-02T05:46:00.219Z,22.80
2023-03-02T05:47:00.373Z,23.90
2023-03-02T05:48:00.196Z,26.30
2023-03-02T05:49:00.201Z,24.10
2023-03-02T05:50:00.168Z,25.30
2023-03-02T05:51:00.194Z,26.70
2023-03-02T05:52:00.164Z,24.80
2023-03-02T05:53:00.244Z,26.00
2023-03-02T05:54:00.137Z,26.20
2023-03-02T05:55:00.144Z,25.00
2023-03-02T05:56:00.148Z,29.20
2023-03-02T05:57:00.142Z,26.70
2023-03-02T05:58:00.129Z,27.60
2023-03-02T05:59:00.156Z,27.30
2023-03-02T06:00:00.086Z,26.90
2023-03-02T06:01:00.067Z,30.00
2023-03-02T06:02:00.222Z,29.00
2023-03-02T06:03:00.151Z,28.50
2023-03-02T06:04:00.038Z,32.50
2023-03-02T06:05:00.036Z,29.40
2023-03-02T06:06:00.089Z,29.80
2023-03-02T06:07:00.036Z,30.00
2023-03-02T06:08:00.033Z,29.90
2023-03-02T06:09:00.005Z,31.20
2023-03-02T06:09:59.972Z,35.60
2023-03-02T06:11:00.003Z,32.10
2023-03-02T06:11:59.990Z,33.60
2023-03-02T06:12:59.980Z,33.10
2023-03-02T06:13:59.977Z,31.70
2023-03-02T06:14:59.922Z,35.80
2023-03-02T06:15:59.989Z,33.40
2023-03-02T06:16:59.955Z,34.50
2023-03-02T06:17:59.927Z,36.40
2023-03-02T06:18:59.917Z,34.50
2023-03-02T06:19:59.915Z,35.60
2023-03-02T06:20:59.913Z,32.10
2023-03-02T06:21:59.905Z,33.90
2023-03-02T06:22:59.844Z,31.50
2023-03-02T06:23:59.840Z,32.50
2023-03-02T06:24:59.860Z,33.70
2023-03-02T06:25:59.840Z,36.20
2023-03-02T06:26:59.831Z,36.80
2023-03-02T06:27:59.816Z,35.80
2023-03-02T06:28:59.842Z,35.80
2023-03-02T06:29:59.834Z,37.40
2023-03-02T06:30:59.769Z,37.50
2023-03-02T06:31:59.853Z,34.60
2023-03-02T06:32:59.752Z,38.00
2023-03-02T06:34:00.148Z,34.80
2023-03-02T06:34:59.785Z,33.60
2023-03-02T06:35:59.816Z,35.10
2023-03-02T06:36:59.755Z,36.90
2023-03-02T06:37:59.696Z,34.20
2023-03-02T06:38:59.737Z,35.90
2023-03-02T06:39:59.691Z,33.90
2023-03-02T06:40:59.671Z,39.30
2023-03-02T06:41:59.710Z,37.60
2023-03-02T06:42:59.692Z,39.60
2023-03-02T06:43:59.630Z,35.60
2023-03-02T06:44:59.658Z,39.80
2023-03-02T06:45:59.691Z,38.90
2023-03-02T06:46:59.610Z,40.00
2023-03-02T06:47:59.626Z,38.10
2023-03-02T06:48:59.606Z,38.00
2023-03-02T06:49:59.603Z,40.30
2023-03-02T06:50:59.607Z,42.70
2023-03-02T06:51:59.566Z,37.40
2023-03-02T06:52:59.556Z,39.00
2023-03-02T06:53:59.539Z,42.70
2023-03-02T06:54:59.543Z,39.60
2023-03-02T06:55:59.519Z,39.30
2023-03-02T06:56:59.526Z,38.40
2023-03-02T06:57:59.531Z,37.90
2023-03-02T06:58:59.528Z,40.50
2023-03-02T06:59:59.511Z,39.60
2023-03-02T07:00:59.508Z,40.10
2023-03-02T07:01:59.456Z,40.60
2023-03-02T07:02:59.459Z,37.90
2023-03-02T07:03:59.519Z,38.90
2023-03-02T07:04:59.442Z,39.70
2023-03-02T07:05:59.451Z,40.10
2023-03-02T07:06:59.423Z,39.20
2023-03-02T07:07:59.422Z,38.50
2023-03-02T07:08:59.399Z,39.30
2023-03-02T07:09:59.362Z,40.40
2023-03-02T07:10:59.374Z,40.30
2023-03-02T07:11:59.380Z,38.20
2023-03-02T07:12:59.335Z,40.20
2023-03-02T07:13:59.348Z,36.30
2023-03-02T07:14:59.334Z,36.00
2023-03-02T07:15:59.379Z,38.30
2023-03-02T07:16:59.396Z,38.00
2023-03-02T07:17:59.301Z,35.70
2023-03-02T07:18:59.288Z,36.30
2023-03-02T07:19:59.276Z,38.90
2023-03-02T07:20:59.274Z,38.10
2023-03-02T07:21:59.263Z,37.20
2023-03-02T07:22:59.257Z,35.10
2023-03-02T07:23:59.268Z,35.90
2023-03-02T07:24:59.238Z,35.80
2023-03-02T07:25:59.212Z,34.20
2023-03-02T07:26:59.187Z,35.30
2023-03-02T07:27:59.227Z,34.10
2023-03-02T07:28:59.307Z,33.90
2023-03-02T07:29:59.240Z,33.70
2023-03-02T07:30:59.199Z,32.80
2023-03-02T07:31:59.183Z,33.10
2023-03-02T07:32:59.197Z,33.90
2023-03-02T07:33:59.157Z,34.90
2023-03-02T07:34:59.136Z,34.80
2023-03-02T07:35:59.160Z,33.40
2023-03-02T07:36:59.099Z,35.20
2023-03-02T07:37:59.100Z,34.50
2023-03-02T07:38:59.141Z,33.50
2023-03-02T07:40:00.682Z,31.00
2023-03-02T07:40:59.064Z,33.10
2023-03-02T07:41:59.079Z,34.40
2023-03-02T07:42:59.038Z,34.80
2023-03-02T07:43:59.074Z,36.20
2023-03-02T07:44:59.058Z,31.60
2023-03-02T07:45:59.667Z,30.90
2023-03-02T07:46:59.011Z,34.00
2023-03-02T07:47:59.003Z,31.00
2023-03-02T07:48:58.970Z,31.50
2023-03-02T07:49:58.985Z,30.30
2023-03-02T07:50:59.006Z,31.20
2023-03-02T07:51:58.997Z,33.90
2023-03-02T07:53:00.035Z,35.90
2023-03-02T07:53:58.952Z,32.00
2023-03-02T07:54:58.945Z,32.70
2023-03-02T07:55:58.926Z,33.40
2023-03-02T07:56:58.916Z,33.80
2023-03-02T07:57:58.940Z,33.00
2023-03-02T07:58:58.897Z,30.00
2023-03-02T07:59:58.866Z,33.70
2023-03-02T08:00:58.874Z,30.30
2023-03-02T08:01:59.055Z,32.10
2023-03-02T08:02:58.943Z,30.90
2023-03-02T08:03:58.866Z,31.40
2023-03-02T08:04:58.823Z,31.40
2023-03-02T08:05:58.843Z,32.30
2023-03-02T08:06:58.848Z,31.60
2023-03-02T08:07:58.812Z,31.00
2023-03-02T08:08:58.802Z,28.30
2023-03-02T08:09:58.779Z,29.80
2023-03-02T08:10:58.771Z,29.40
2023-03-02T08:11:58.753Z,27.70
2023-03-02T08:12:58.754Z,30.70
2023-03-02T08:13:58.770Z,26.20
2023-03-02T08:14:58.756Z,27.60
2023-03-02T08:15:58.759Z,30.80
2023-03-02T08:16:58.723Z,27.30
2023-03-02T08:17:58.694Z,27.20
2023-03-02T08:19:00.037Z,29.70
2023-03-02T08:19:58.697Z,27.10
2023-03-02T08:20:58.671Z,29.00
2023-03-02T08:21:58.689Z,30.90
2023-03-02T08:22:58.632Z,26.80
2023-03-02T08:23:58.667Z,26.80
2023-03-02T08:24:58.675Z,29.60
2023-03-02T08:25:58.656Z,29.50
2023-03-02T08:26:58.626Z,24.80
2023-03-02T08:27:58.601Z,27.00
2023-03-02T08:28:58.575Z,25.60
2023-03-02T08:29:58.614Z,25.50
2023-03-02T08:30:58.587Z,25.20
2023-03-02T08:31:58.776Z,27.00
2023-03-02T08:32:58.551Z,29.60
2023-03-02T08:33:58.581Z,27.50
2023-03-02T08:34:58.530Z,26.60
2023-03-02T08:35:58.695Z,28.60
2023-03-02T08:36:58.550Z,26.90
2023-03-02T08:37:58.505Z,26.00
2023-03-02T08:38:58.525Z,26.20
2023-03-02T08:39:58.931Z,25.30
2023-03-02T08:40:58.462Z,28.60
2023-03-02T08:41:58.442Z,25.60
2023-03-02T08:42:58.453Z,29.60
2023-03-02T08:43:58.438Z,28.70
2023-03-02T08:44:58.488Z,28.50
2023-03-02T08:45:58.459Z,28.20
2023-03-02T08:46:58.400Z,26.90
2023-03-02T08:47:58.426Z,26.70
2023-03-02T08:48:58.396Z,28.40
2023-03-02T08:49:58.367Z,27.70
2023-03-02T08:50:58.353Z,25.30
2023-03-02T08:51:58.412Z,29.20
2023-03-02T08:52:58.355Z,25.00
2023-03-02T08:53:58.371Z,26.10
2023-03-02T08:54:58.375Z,25.90
2023-03-02T08:55:58.333Z,25.50
2023-03-02T08:56:58.304Z,25.70
2023-03-02T08:57:58.276Z,26.50
2023-03-02T08:58:58.285Z,24.10
2023-03-02T08:59:58.278Z,27.40
2023-03-02T09:00:58.304Z,24.50
2023-03-02T09:01:58.253Z,24.80
2023-03-02T09:02:58.242Z,26.00
2023-03-02T09:03:58.228Z,25.50
2023-03-02T09:04:58.277Z,27.10
2023-03-02T09:05:58.250Z,26.80
2023-03-02T09:06:58.208Z,28.80
2023-03-02T09:07:58.236Z,26.20
2023-03-02T09:08:58.183Z,25.70
2023-03-02T09:09:58.233Z,24.90
2023-03-02T09:10:58.176Z,25.20
2023-03-02T09:11:58.166Z,24.50
2023-03-02T09:12:58.131Z,25.20
2023-03-02T09:13:58.134Z,24.30
2023-03-02T09:14:58.126Z,24.60
2023-03-02T09:15:58.098Z,25.20
2023-03-02T09:16:58.181Z,24.70
2023-03-02T09:17:58.074Z,27.00
2023-03-02T09:18:58.084Z,24.80
2023-03-02T09:19:58.067Z,24.30
2023-03-02T09:20:58.072Z,22.90
2023-03-02T09:21:58.062Z,23.50
2023-03-02T09:22:58.016Z,25.20
2023-03-02T09:23:58.065Z,26.70
2023-03-02T09:24:58.039Z,26.10
2023-03-02T09:25:58.020Z,23.90
2023-03-02T09:26:57.993Z,23.60
2023-03-02T09:27:58.063Z,22.10
2023-03-02T09:28:57.992Z,22.40
2023-03-02T09:29:57.988Z,23.20
2023-03-02T09:30:57.945Z,23.50
2023-03-02T09:31:58.046Z,24.10
2023-03-02T09:32:58.196Z,25.10
2023-03-02T09:33:57.988Z,24.00
2023-03-02T09:34:57.886Z,27.20
2023-03-02T09:35:57.910Z,22.50
2023-03-02T09:36:57.916Z,24.50
2023-03-02T09:37:58.000Z,21.00
2023-03-02T09:38:57.900Z,20.60
2023-03-02T09:39:57.868Z,23.70
2023-03-02T09:40:57.845Z,23.30
2023-03-02T09:41:57.860Z,21.90
2023-03-02T09:42:57.828Z,22.70
2023-03-02T09:43:59.916Z,22.70
2023-03-02T09:44:57.807Z,21.70
2023-03-02T09:45:57.943Z,21.30
2023-03-02T09:46:57.780Z,22.00
2023-03-02T09:47:57.780Z,21.20
2023-03-02T09:48:57.759Z,19.20
2023-03-02T09:49:57.785Z,21.40
2023-03-02T09:50:57.749Z,21.90
2023-03-02T09:51:57.809Z,23.10
2023-03-02T09:52:57.721Z,21.50
2023-03-02T09:53:57.768Z,21.50
2023-03-02T09:54:57.697Z,20.40
2023-03-02T09:55:57.707Z,19.70
2023-03-02T09:56:57.753Z,19.80
2023-03-02T09:57:57.659Z,20.70
2023-03-02T09:58:57.670Z,19.70
2023-03-02T10:00:03.767Z,19.80
2023-03-02T10:00:57.647Z,21.70
2023-03-02T10:01:57.628Z,22.40
2023-03-02T10:03:05.160Z,19.80
2023-03-02T10:03:57.692Z,20.80
2023-03-02T10:04:57.577Z,19.60
2023-03-02T10:05:57.635Z,19.10
2023-03-02T10:06:57.729Z,19.30
2023-03-02T10:07:59.356Z,18.70
2023-03-02T10:08:57.550Z,22.90
2023-03-02T10:09:57.572Z,20.10
2023-03-02T10:10:57.539Z,17.80
2023-03-02T10:11:57.558Z,18.40
2023-03-02T10:12:57.527Z,19.50
2023-03-02T10:13:57.488Z,19.60
2023-03-02T10:14:58.168Z,18.10
2023-03-02T10:15:57.576Z,18.80
2023-03-02T10:16:57.490Z,18.10
2023-03-02T10:17:57.465Z,17.30
2023-03-02T10:18:57.464Z,17.80
2023-03-02T10:19:57.450Z,18.20
2023-03-02T10:20:57.426Z,19.10
2023-03-02T10:21:57.431Z,19.40
2023-03-02T10:22:57.386Z,18.00
2023-03-02T10:23:57.425Z,17.70
2023-03-02T10:24:57.437Z,17.20
2023-03-02T10:25:57.376Z,18.10
2023-03-02T10:26:57.393Z,19.60
2023-03-02T10:27:57.385Z,15.20
2023-03-02T10:28:57.370Z,17.20
2023-03-02T10:29:57.384Z,14.70
2023-03-02T10:30:57.358Z,15.30
2023-03-02T10:31:57.436Z,16.50
2023-03-02T10:32:57.328Z,15.50
2023-03-02T10:33:57.343Z,15.40
2023-03-02T10:34:57.307Z,14.80
2023-03-02T10:35:57.279Z,18.00
2023-03-02T10:36:57.242Z,14.20
2023-03-02T10:37:57.307Z,17.00
2023-03-02T10:38:57.249Z,15.90
2023-03-02T10:39:57.252Z,12.60
2023-03-02T10:40:57.212Z,13.00
2023-03-02T10:41:57.255Z,14.40
2023-03-02T10:42:57.252Z,14.70
2023-03-02T10:43:57.223Z,18.10
2023-03-02T10:44:57.183Z,15.70
2023-03-02T10:45:57.193Z,13.50
2023-03-02T10:46:57.186Z,14.30
2023-03-02T10:47:57.557Z,15.50
2023-03-02T10:48:57.162Z,17.90
2023-03-02T10:49:57.122Z,16.60
2023-03-02T10:50:57.125Z,19.10
2023-03-02T10:51:57.128Z,14.60
2023-03-02T10:53:00.735Z,16.50
2023-03-02T10:53:57.091Z,13.60
2023-03-02T10:54:57.083Z,13.00
2023-03-02T10:55:57.129Z,13.40
2023-03-02T10:56:57.040Z,16.40
2023-03-02T10:57:57.036Z,17.10
2023-03-02T10:58:57.049Z,14.60
2023-03-02T10:59:57.054Z,12.40
2023-03-02T11:00:57.075Z,14.60
2023-03-02T11:01:57.066Z,16.30
2023-03-02T11:02:57.022Z,12.00
2023-03-02T11:03:56.991Z,16.10
2023-03-02T11:04:57.779Z,14.50
2023-03-02T11:05:56.977Z,15.30
2023-03-02T11:06:56.968Z,14.30
2023-03-02T11:07:56.983Z,14.40
2023-03-02T11:08:56.963Z,13.60
2023-03-02T11:09:56.931Z,14.00
2023-03-02T11:11:00.001Z,14.20
2023-03-02T11:11:57.070Z,13.90
2023-03-02T11:12:56.891Z,14.90
2023-03-02T11:13:56.896Z,16.00
2023-03-02T11:14:56.877Z,18.20
2023-03-02T11:15:56.954Z,12.70
2023-03-02T11:16:56.836Z,15.40
2023-03-02T11:17:56.842Z,15.00
2023-03-02T11:18:56.813Z,13.90
2023-03-02T11:19:56.850Z,13.40
2023-03-02T11:20:56.823Z,13.80
2023-03-02T11:21:56.803Z,13.60
2023-03-02T11:22:56.773Z,17.00
2023-03-02T11:23:56.827Z,11.80
2023-03-02T11:24:56.763Z,13.10
2023-03-02T11:25:56.759Z,15.70
2023-03-02T11:26:56.744Z,13.00
2023-03-02T11:27:56.770Z,12.00
2023-03-02T11:28:56.707Z,14.60
2023-03-02T11:29:56.762Z,14.50
2023-03-02T11:30:56.686Z,13.80
2023-03-02T11:31:56.926Z,14.10
2023-03-02T11:32:56.663Z,12.40
2023-03-02T11:33:59.816Z,13.50
2023-03-02T11:34:56.664Z,14.90
2023-03-02T11:35:56.684Z,12.20
2023-03-02T11:36:56.709Z,13.70
2023-03-02T11:37:56.650Z,13.10
2023-03-02T11:38:56.620Z,12.20
2023-03-02T11:39:56.621Z,12.60
2023-03-02T11:40:56.606Z,10.90
2023-03-02T11:41:56.577Z,12.60
2023-03-02T11:42:56.588Z,13.00
2023-03-02T11:43:56.586Z,11.00
2023-03-02T11:44:56.553Z,11.40
2023-03-02T11:45:56.539Z,10.80
2023-03-02T11:46:56.631Z,11.20
2023-03-02T11:48:02.479Z,11.70
2023-03-02T11:48:56.509Z,13.40
2023-03-02T11:49:56.485Z,11.30
2023-03-02T11:50:56.537Z,11.80
2023-03-02T11:58:04.280Z,12.00
2023-03-02T11:58:09.238Z,12.30
2023-03-02T11:59:09.234Z,13.30
2023-03-02T12:00:09.182Z,12.10
2023-03-02T12:01:09.199Z,11.60
2023-03-02T12:02:09.190Z,12.20
2023-03-02T12:03:09.176Z,11.10
2023-03-02T12:04:09.166Z,11.30
2023-03-02T12:05:09.154Z,11.40
2023-03-02T12:06:09.144Z,14.10
2023-03-02T12:07:09.162Z,11.50
2023-03-02T12:08:09.137Z,13.10
2023-03-02T12:09:09.148Z,10.30
2023-03-02T12:10:09.061Z,14.30
2023-03-02T12:11:09.098Z,12.20
2023-03-02T12:12:09.139Z,13.50
2023-03-02T12:13:09.097Z,13.10
2023-03-02T12:14:09.018Z,13.20
2023-03-02T12:15:09.013Z,13.50
2023-03-02T12:16:09.079Z,11.60
2023-03-02T12:17:09.018Z,13.50
2023-03-02T12:18:09.035Z,12.00
2023-03-02T12:19:08.976Z,13.60
2023-03-02T12:20:09.051Z,9.60
2023-03-02T12:21:08.962Z,12.20
2023-03-02T12:22:08.936Z,10.40
2023-03-02T12:23:08.945Z,11.90
2023-03-02T12:24:08.915Z,10.50
2023-03-02T12:25:08.933Z,13.30
2023-03-02T12:26:08.918Z,14.40
2023-03-02T12:27:08.964Z,10.30
2023-03-02T12:28:08.937Z,11.10
2023-03-02T12:29:08.891Z,15.90
2023-03-02T12:30:08.882Z,13.20
2023-03-02T12:31:08.932Z,9.20
2023-03-02T12:32:08.968Z,9.30
2023-03-02T12:33:08.854Z,9.60
2023-03-02T12:34:08.849Z,10.20
2023-03-02T12:35:08.839Z,9.60
2023-03-02T12:36:08.774Z,11.60
2023-03-02T12:37:08.901Z,9.70
2023-03-02T12:38:08.814Z,9.20
2023-03-02T12:39:08.804Z,8.80
2023-03-02T12:40:08.787Z,10.80
2023-03-02T12:41:08.779Z,9.80
2023-03-02T12:42:08.788Z,10.30
2023-03-02T12:43:08.755Z,10.30
2023-03-02T12:44:08.788Z,11.70
2023-03-02T12:45:08.730Z,10.10
2023-03-02T12:46:08.722Z,10.90
2023-03-02T12:47:08.827Z,10.60
2023-03-02T12:48:08.798Z,10.60
2023-03-02T12:49:10.163Z,12.90
2023-03-02T12:50:08.663Z,9.60
2023-03-02T12:51:08.689Z,11.40
2023-03-02T12:52:08.784Z,10.10
2023-03-02T12:53:08.633Z,9.30
2023-03-02T12:54:08.624Z,9.30
2023-03-02T12:55:08.609Z,9.80
2023-03-02T12:56:08.683Z,8.50
2023-03-02T12:57:08.585Z,12.20
2023-03-02T12:58:08.969Z,15.10